sensor_id;sensor_type;location;lat;lon;timestamp;temperature;humidity
35746;DHT22;21870;42.812;74.628;2023-07-02T00:01:48;22.50;82.30
35746;DHT22;21870;42.812;74.628;2023-07-02T00:04:15;22.40;80.50
35746;DHT22;21870;42.812;74.628;2023-07-02T00:06:48;22.40;80.10
35746;DHT22;21870;42.812;74.628;2023-07-02T00:09:15;22.40;80.60
35746;DHT22;21870;42.812;74.628;2023-07-02T00:11:44;22.30;81.00
35746;DHT22;21870;42.812;74.628;2023-07-02T00:14:14;22.30;80.70
35746;DHT22;21870;42.812;74.628;2023-07-02T00:16:43;22.30;80.20
35746;DHT22;21870;42.812;74.628;2023-07-02T00:19:14;22.30;80.40
35746;DHT22;21870;42.812;74.628;2023-07-02T00:21:41;22.30;79.30
35746;DHT22;21870;42.812;74.628;2023-07-02T00:24:08;22.40;79.40
35746;DHT22;21870;42.812;74.628;2023-07-02T00:26:37;22.40;79.80
35746;DHT22;21870;42.812;74.628;2023-07-02T00:29:04;22.50;80.20
35746;DHT22;21870;42.812;74.628;2023-07-02T00:31:31;22.60;79.00
35746;DHT22;21870;42.812;74.628;2023-07-02T00:33:57;22.70;77.60
35746;DHT22;21870;42.812;74.628;2023-07-02T00:36:23;22.90;77.80
35746;DHT22;21870;42.812;74.628;2023-07-02T00:38:50;23.00;78.50
35746;DHT22;21870;42.812;74.628;2023-07-02T00:41:16;23.10;79.80
35746;DHT22;21870;42.812;74.628;2023-07-02T00:43:42;23.10;82.30
35746;DHT22;21870;42.812;74.628;2023-07-02T00:46:17;23.10;82.60
35746;DHT22;21870;42.812;74.628;2023-07-02T00:48:47;23.10;82.60
35746;DHT22;21870;42.812;74.628;2023-07-02T00:51:16;23.20;83.70
35746;DHT22;21870;42.812;74.628;2023-07-02T00:53:44;23.20;83.00
35746;DHT22;21870;42.812;74.628;2023-07-02T00:56:12;23.30;82.80
35746;DHT22;21870;42.812;74.628;2023-07-02T00:58:41;23.40;84.40
35746;DHT22;21870;42.812;74.628;2023-07-02T01:01:23;23.40;84.40
35746;DHT22;21870;42.812;74.628;2023-07-02T01:03:58;23.50;84.80
35746;DHT22;21870;42.812;74.628;2023-07-02T01:06:32;23.60;84.30
35746;DHT22;21870;42.812;74.628;2023-07-02T01:09:03;23.70;84.10
35746;DHT22;21870;42.812;74.628;2023-07-02T01:11:50;23.90;85.90
35746;DHT22;21870;42.812;74.628;2023-07-02T01:14:38;24.00;86.30
35746;DHT22;21870;42.812;74.628;2023-07-02T01:17:06;24.10;84.20
35746;DHT22;21870;42.812;74.628;2023-07-02T01:22:11;24.30;85.30
35746;DHT22;21870;42.812;74.628;2023-07-02T01:24:41;24.40;85.20
35746;DHT22;21870;42.812;74.628;2023-07-02T01:27:08;24.50;84.10
35746;DHT22;21870;42.812;74.628;2023-07-02T01:29:36;24.60;83.20
35746;DHT22;21870;42.812;74.628;2023-07-02T01:32:05;24.70;82.30
35746;DHT22;21870;42.812;74.628;2023-07-02T01:34:31;24.80;84.00
35746;DHT22;21870;42.812;74.628;2023-07-02T01:36:57;25.00;86.30
35746;DHT22;21870;42.812;74.628;2023-07-02T01:39:23;25.10;86.50
35746;DHT22;21870;42.812;74.628;2023-07-02T01:41:52;25.20;86.60
35746;DHT22;21870;42.812;74.628;2023-07-02T01:44:19;25.30;87.00
35746;DHT22;21870;42.812;74.628;2023-07-02T01:46:46;25.40;85.20
35746;DHT22;21870;42.812;74.628;2023-07-02T01:49:18;25.50;84.80
35746;DHT22;21870;42.812;74.628;2023-07-02T01:51:55;25.60;83.40
35746;DHT22;21870;42.812;74.628;2023-07-02T01:54:23;25.70;86.20
35746;DHT22;21870;42.812;74.628;2023-07-02T01:56:49;25.90;85.10
35746;DHT22;21870;42.812;74.628;2023-07-02T01:59:16;26.10;85.70
35746;DHT22;21870;42.812;74.628;2023-07-02T02:01:45;26.10;84.20
35746;DHT22;21870;42.812;74.628;2023-07-02T02:04:11;26.20;82.00
35746;DHT22;21870;42.812;74.628;2023-07-02T02:06:38;26.30;82.20
35746;DHT22;21870;42.812;74.628;2023-07-02T02:09:05;26.40;83.80
35746;DHT22;21870;42.812;74.628;2023-07-02T02:11:33;26.50;82.20
35746;DHT22;21870;42.812;74.628;2023-07-02T02:13:59;26.60;81.30
35746;DHT22;21870;42.812;74.628;2023-07-02T02:16:28;26.70;81.80
35746;DHT22;21870;42.812;74.628;2023-07-02T02:18:55;26.80;81.30
35746;DHT22;21870;42.812;74.628;2023-07-02T02:21:22;27.00;81.70
35746;DHT22;21870;42.812;74.628;2023-07-02T02:23:48;27.10;83.60
35746;DHT22;21870;42.812;74.628;2023-07-02T02:26:15;27.30;82.30
35746;DHT22;21870;42.812;74.628;2023-07-02T02:28:44;27.50;81.50
35746;DHT22;21870;42.812;74.628;2023-07-02T02:31:10;27.70;82.10
35746;DHT22;21870;42.812;74.628;2023-07-02T02:33:36;27.80;82.80
35746;DHT22;21870;42.812;74.628;2023-07-02T02:36:02;28.00;83.00
35746;DHT22;21870;42.812;74.628;2023-07-02T02:38:28;28.20;82.10
35746;DHT22;21870;42.812;74.628;2023-07-02T02:40:55;28.30;83.50
35746;DHT22;21870;42.812;74.628;2023-07-02T02:43:21;28.40;84.50
35746;DHT22;21870;42.812;74.628;2023-07-02T02:45:48;28.50;84.50
35746;DHT22;21870;42.812;74.628;2023-07-02T02:48:14;28.70;87.30
35746;DHT22;21870;42.812;74.628;2023-07-02T02:50:40;28.80;85.70
35746;DHT22;21870;42.812;74.628;2023-07-02T02:53:09;28.90;86.20
35746;DHT22;21870;42.812;74.628;2023-07-02T02:55:38;29.10;87.00
35746;DHT22;21870;42.812;74.628;2023-07-02T02:58:04;29.20;88.10
35746;DHT22;21870;42.812;74.628;2023-07-02T03:00:31;29.30;87.10
35746;DHT22;21870;42.812;74.628;2023-07-02T03:02:57;29.40;86.20
35746;DHT22;21870;42.812;74.628;2023-07-02T03:05:23;29.50;86.40
35746;DHT22;21870;42.812;74.628;2023-07-02T03:07:50;29.60;87.00
35746;DHT22;21870;42.812;74.628;2023-07-02T03:10:17;29.70;84.80
35746;DHT22;21870;42.812;74.628;2023-07-02T03:12:43;29.70;85.70
35746;DHT22;21870;42.812;74.628;2023-07-02T03:15:10;29.80;87.50
35746;DHT22;21870;42.812;74.628;2023-07-02T03:17:36;30.00;85.30
35746;DHT22;21870;42.812;74.628;2023-07-02T03:20:03;30.10;81.60
35746;DHT22;21870;42.812;74.628;2023-07-02T03:22:35;30.10;83.90
35746;DHT22;21870;42.812;74.628;2023-07-02T03:25:01;30.20;82.00
35746;DHT22;21870;42.812;74.628;2023-07-02T03:27:27;30.40;85.00
35746;DHT22;21870;42.812;74.628;2023-07-02T03:29:53;30.50;84.10
35746;DHT22;21870;42.812;74.628;2023-07-02T03:32:20;30.60;83.20
35746;DHT22;21870;42.812;74.628;2023-07-02T03:34:46;30.70;81.60
35746;DHT22;21870;42.812;74.628;2023-07-02T03:37:12;30.60;83.70
35746;DHT22;21870;42.812;74.628;2023-07-02T03:39:38;30.70;82.20
35746;DHT22;21870;42.812;74.628;2023-07-02T03:42:05;30.70;81.50
35746;DHT22;21870;42.812;74.628;2023-07-02T03:44:32;30.80;83.60
35746;DHT22;21870;42.812;74.628;2023-07-02T03:46:58;30.90;83.20
35746;DHT22;21870;42.812;74.628;2023-07-02T03:49:24;30.90;81.50
35746;DHT22;21870;42.812;74.628;2023-07-02T03:51:50;31.00;83.60
35746;DHT22;21870;42.812;74.628;2023-07-02T03:54:16;31.10;81.40
35746;DHT22;21870;42.812;74.628;2023-07-02T03:56:43;31.30;78.10
35746;DHT22;21870;42.812;74.628;2023-07-02T03:59:12;31.40;79.10
35746;DHT22;21870;42.812;74.628;2023-07-02T04:01:38;31.50;78.40
35746;DHT22;21870;42.812;74.628;2023-07-02T04:04:04;31.50;76.10
35746;DHT22;21870;42.812;74.628;2023-07-02T04:06:31;31.70;78.20
35746;DHT22;21870;42.812;74.628;2023-07-02T04:08:58;31.70;78.20
35746;DHT22;21870;42.812;74.628;2023-07-02T04:11:24;31.80;76.90
35746;DHT22;21870;42.812;74.628;2023-07-02T04:13:50;31.90;75.90
35746;DHT22;21870;42.812;74.628;2023-07-02T04:16:16;32.10;75.90
35746;DHT22;21870;42.812;74.628;2023-07-02T04:18:42;32.20;74.80
35746;DHT22;21870;42.812;74.628;2023-07-02T04:21:08;32.30;77.90
35746;DHT22;21870;42.812;74.628;2023-07-02T04:23:34;32.30;76.20
35746;DHT22;21870;42.812;74.628;2023-07-02T04:26:00;32.50;76.20
35746;DHT22;21870;42.812;74.628;2023-07-02T04:28:27;32.50;74.40
35746;DHT22;21870;42.812;74.628;2023-07-02T04:30:53;32.80;73.50
35746;DHT22;21870;42.812;74.628;2023-07-02T04:33:19;33.00;76.30
35746;DHT22;21870;42.812;74.628;2023-07-02T04:35:45;33.00;74.70
35746;DHT22;21870;42.812;74.628;2023-07-02T04:38:11;33.00;71.10
35746;DHT22;21870;42.812;74.628;2023-07-02T04:40:38;33.10;73.50
35746;DHT22;21870;42.812;74.628;2023-07-02T04:43:04;33.20;72.70
35746;DHT22;21870;42.812;74.628;2023-07-02T04:45:30;33.30;72.10
35746;DHT22;21870;42.812;74.628;2023-07-02T04:48:06;33.30;74.80
35746;DHT22;21870;42.812;74.628;2023-07-02T04:50:32;33.50;77.40
35746;DHT22;21870;42.812;74.628;2023-07-02T04:52:58;33.60;72.60
35746;DHT22;21870;42.812;74.628;2023-07-02T04:55:24;33.60;74.50
35746;DHT22;21870;42.812;74.628;2023-07-02T04:57:50;33.60;71.40
35746;DHT22;21870;42.812;74.628;2023-07-02T05:00:17;33.60;70.40
35746;DHT22;21870;42.812;74.628;2023-07-02T05:02:43;33.60;70.30
35746;DHT22;21870;42.812;74.628;2023-07-02T05:05:09;33.60;68.80
35746;DHT22;21870;42.812;74.628;2023-07-02T05:07:35;33.60;65.60
35746;DHT22;21870;42.812;74.628;2023-07-02T05:10:01;33.80;67.10
35746;DHT22;21870;42.812;74.628;2023-07-02T05:12:27;33.80;67.00
35746;DHT22;21870;42.812;74.628;2023-07-02T05:14:53;34.00;66.50
35746;DHT22;21870;42.812;74.628;2023-07-02T05:17:19;34.10;66.90
35746;DHT22;21870;42.812;74.628;2023-07-02T05:19:45;34.10;68.00
35746;DHT22;21870;42.812;74.628;2023-07-02T05:22:11;34.20;68.10
35746;DHT22;21870;42.812;74.628;2023-07-02T05:24:37;34.30;68.90
35746;DHT22;21870;42.812;74.628;2023-07-02T05:27:04;34.40;72.80
35746;DHT22;21870;42.812;74.628;2023-07-02T05:29:31;34.60;75.20
35746;DHT22;21870;42.812;74.628;2023-07-02T05:31:57;34.80;74.10
35746;DHT22;21870;42.812;74.628;2023-07-02T05:34:23;34.80;71.80
35746;DHT22;21870;42.812;74.628;2023-07-02T05:36:49;34.90;74.70
35746;DHT22;21870;42.812;74.628;2023-07-02T05:39:15;35.00;72.90
35746;DHT22;21870;42.812;74.628;2023-07-02T05:41:41;34.90;71.20
35746;DHT22;21870;42.812;74.628;2023-07-02T05:44:07;35.10;71.90
35746;DHT22;21870;42.812;74.628;2023-07-02T05:46:33;35.10;73.10
35746;DHT22;21870;42.812;74.628;2023-07-02T05:48:59;35.10;71.70
35746;DHT22;21870;42.812;74.628;2023-07-02T05:51:25;35.20;70.50
35746;DHT22;21870;42.812;74.628;2023-07-02T05:53:52;35.30;70.70
35746;DHT22;21870;42.812;74.628;2023-07-02T05:56:19;35.30;71.40
35746;DHT22;21870;42.812;74.628;2023-07-02T05:58:48;35.20;70.00
35746;DHT22;21870;42.812;74.628;2023-07-02T06:01:18;35.30;68.80
35746;DHT22;21870;42.812;74.628;2023-07-02T06:03:44;35.40;68.40
35746;DHT22;21870;42.812;74.628;2023-07-02T06:06:11;35.40;67.50
35746;DHT22;21870;42.812;74.628;2023-07-02T06:08:37;35.40;67.40
35746;DHT22;21870;42.812;74.628;2023-07-02T06:11:04;35.50;67.30
35746;DHT22;21870;42.812;74.628;2023-07-02T06:13:30;35.70;71.10
35746;DHT22;21870;42.812;74.628;2023-07-02T06:15:56;35.70;71.90
35746;DHT22;21870;42.812;74.628;2023-07-02T06:18:23;35.70;68.40
35746;DHT22;21870;42.812;74.628;2023-07-02T06:20:52;35.70;67.70
35746;DHT22;21870;42.812;74.628;2023-07-02T06:23:18;35.80;68.00
35746;DHT22;21870;42.812;74.628;2023-07-02T06:25:44;35.70;66.90
35746;DHT22;21870;42.812;74.628;2023-07-02T06:28:10;35.70;66.80
35746;DHT22;21870;42.812;74.628;2023-07-02T06:30:36;35.70;69.90
35746;DHT22;21870;42.812;74.628;2023-07-02T06:33:02;35.70;69.50
35746;DHT22;21870;42.812;74.628;2023-07-02T06:35:28;35.80;67.80
35746;DHT22;21870;42.812;74.628;2023-07-02T06:37:57;35.80;68.30
35746;DHT22;21870;42.812;74.628;2023-07-02T06:40:23;35.90;68.20
35746;DHT22;21870;42.812;74.628;2023-07-02T06:42:49;36.00;66.50
35746;DHT22;21870;42.812;74.628;2023-07-02T06:45:16;36.10;65.50
35746;DHT22;21870;42.812;74.628;2023-07-02T06:47:42;36.20;67.50
35746;DHT22;21870;42.812;74.628;2023-07-02T06:50:08;36.40;70.90
35746;DHT22;21870;42.812;74.628;2023-07-02T06:52:34;36.50;66.80
35746;DHT22;21870;42.812;74.628;2023-07-02T06:55:00;36.60;68.70
35746;DHT22;21870;42.812;74.628;2023-07-02T06:57:26;36.60;62.50
35746;DHT22;21870;42.812;74.628;2023-07-02T06:59:52;36.70;60.30
35746;DHT22;21870;42.812;74.628;2023-07-02T07:02:24;36.70;58.30
35746;DHT22;21870;42.812;74.628;2023-07-02T07:04:53;36.70;61.20
35746;DHT22;21870;42.812;74.628;2023-07-02T07:07:19;36.80;64.30
35746;DHT22;21870;42.812;74.628;2023-07-02T07:09:46;36.90;63.70
35746;DHT22;21870;42.812;74.628;2023-07-02T07:12:12;36.80;62.30
35746;DHT22;21870;42.812;74.628;2023-07-02T07:14:38;36.80;66.00
35746;DHT22;21870;42.812;74.628;2023-07-02T07:17:04;36.90;67.30
35746;DHT22;21870;42.812;74.628;2023-07-02T07:19:30;37.10;66.70
35746;DHT22;21870;42.812;74.628;2023-07-02T07:21:56;37.10;63.90
35746;DHT22;21870;42.812;74.628;2023-07-02T07:24:23;37.00;64.40
35746;DHT22;21870;42.812;74.628;2023-07-02T07:26:49;37.10;64.20
35746;DHT22;21870;42.812;74.628;2023-07-02T07:29:15;37.00;64.70
35746;DHT22;21870;42.812;74.628;2023-07-02T07:31:41;37.10;65.30
35746;DHT22;21870;42.812;74.628;2023-07-02T07:34:07;37.10;62.70
35746;DHT22;21870;42.812;74.628;2023-07-02T07:36:33;37.30;64.50
35746;DHT22;21870;42.812;74.628;2023-07-02T07:38:59;37.30;63.70
35746;DHT22;21870;42.812;74.628;2023-07-02T07:41:26;37.40;64.60
35746;DHT22;21870;42.812;74.628;2023-07-02T07:43:52;37.30;61.90
35746;DHT22;21870;42.812;74.628;2023-07-02T07:46:18;37.50;62.50
35746;DHT22;21870;42.812;74.628;2023-07-02T07:48:45;37.50;62.90
35746;DHT22;21870;42.812;74.628;2023-07-02T07:51:11;37.50;61.80
35746;DHT22;21870;42.812;74.628;2023-07-02T07:53:40;37.30;62.70
35746;DHT22;21870;42.812;74.628;2023-07-02T07:56:06;37.20;60.20
35746;DHT22;21870;42.812;74.628;2023-07-02T07:58:32;37.30;59.40
35746;DHT22;21870;42.812;74.628;2023-07-02T08:00:58;37.30;62.30
35746;DHT22;21870;42.812;74.628;2023-07-02T08:03:24;37.40;61.40
35746;DHT22;21870;42.812;74.628;2023-07-02T08:05:50;37.50;62.30
35746;DHT22;21870;42.812;74.628;2023-07-02T08:08:17;37.40;63.70
35746;DHT22;21870;42.812;74.628;2023-07-02T08:10:43;37.50;59.90
35746;DHT22;21870;42.812;74.628;2023-07-02T08:13:11;37.50;60.10
35746;DHT22;21870;42.812;74.628;2023-07-02T08:15:37;37.50;60.30
35746;DHT22;21870;42.812;74.628;2023-07-02T08:18:04;37.50;60.00
35746;DHT22;21870;42.812;74.628;2023-07-02T08:20:32;37.70;61.30
35746;DHT22;21870;42.812;74.628;2023-07-02T08:22:58;37.80;60.90
35746;DHT22;21870;42.812;74.628;2023-07-02T08:25:24;37.80;61.00
35746;DHT22;21870;42.812;74.628;2023-07-02T08:27:52;38.00;61.30
35746;DHT22;21870;42.812;74.628;2023-07-02T08:30:18;38.00;59.60
35746;DHT22;21870;42.812;74.628;2023-07-02T08:32:46;37.90;58.90
35746;DHT22;21870;42.812;74.628;2023-07-02T08:35:12;38.00;58.90
35746;DHT22;21870;42.812;74.628;2023-07-02T08:37:38;38.00;59.30
35746;DHT22;21870;42.812;74.628;2023-07-02T08:40:05;38.10;60.40
35746;DHT22;21870;42.812;74.628;2023-07-02T08:42:34;38.20;59.00
35746;DHT22;21870;42.812;74.628;2023-07-02T08:45:00;38.30;60.20
35746;DHT22;21870;42.812;74.628;2023-07-02T08:47:27;38.30;57.50
35746;DHT22;21870;42.812;74.628;2023-07-02T08:49:53;38.30;58.10
35746;DHT22;21870;42.812;74.628;2023-07-02T08:52:19;38.30;56.10
35746;DHT22;21870;42.812;74.628;2023-07-02T08:54:45;38.20;57.10
35746;DHT22;21870;42.812;74.628;2023-07-02T08:57:12;38.40;58.60
35746;DHT22;21870;42.812;74.628;2023-07-02T08:59:38;38.30;57.60
35746;DHT22;21870;42.812;74.628;2023-07-02T09:02:04;38.40;57.40
35746;DHT22;21870;42.812;74.628;2023-07-02T09:04:30;38.50;58.00
35746;DHT22;21870;42.812;74.628;2023-07-02T09:07:07;38.50;57.00
35746;DHT22;21870;42.812;74.628;2023-07-02T09:09:48;38.50;57.30
35746;DHT22;21870;42.812;74.628;2023-07-02T09:12:29;38.50;57.10
35746;DHT22;21870;42.812;74.628;2023-07-02T09:15:03;38.60;56.60
35746;DHT22;21870;42.812;74.628;2023-07-02T09:17:34;38.50;56.00
35746;DHT22;21870;42.812;74.628;2023-07-02T09:20:05;38.50;55.70
35746;DHT22;21870;42.812;74.628;2023-07-02T09:22:36;38.30;55.50
35746;DHT22;21870;42.812;74.628;2023-07-02T09:25:04;38.40;56.90
35746;DHT22;21870;42.812;74.628;2023-07-02T09:30:15;38.40;55.60
35746;DHT22;21870;42.812;74.628;2023-07-02T09:32:45;38.40;56.80
35746;DHT22;21870;42.812;74.628;2023-07-02T09:35:12;38.50;56.40
35746;DHT22;21870;42.812;74.628;2023-07-02T09:37:40;38.40;56.80
35746;DHT22;21870;42.812;74.628;2023-07-02T09:40:08;38.40;57.30
35746;DHT22;21870;42.812;74.628;2023-07-02T09:42:35;38.50;57.20
35746;DHT22;21870;42.812;74.628;2023-07-02T09:45:08;38.40;57.10
35746;DHT22;21870;42.812;74.628;2023-07-02T09:47:40;38.30;56.50
35746;DHT22;21870;42.812;74.628;2023-07-02T09:50:07;38.30;55.70
35746;DHT22;21870;42.812;74.628;2023-07-02T09:52:35;38.10;55.80
35746;DHT22;21870;42.812;74.628;2023-07-02T09:55:02;38.10;57.00
35746;DHT22;21870;42.812;74.628;2023-07-02T09:57:29;38.10;56.10
35746;DHT22;21870;42.812;74.628;2023-07-02T10:00:00;38.20;57.40
35746;DHT22;21870;42.812;74.628;2023-07-02T10:02:27;38.30;57.10
35746;DHT22;21870;42.812;74.628;2023-07-02T10:04:53;38.20;57.10
35746;DHT22;21870;42.812;74.628;2023-07-02T10:07:28;38.30;57.60
35746;DHT22;21870;42.812;74.628;2023-07-02T10:09:55;38.40;56.70
35746;DHT22;21870;42.812;74.628;2023-07-02T10:12:23;38.40;54.50
35746;DHT22;21870;42.812;74.628;2023-07-02T10:14:51;38.30;57.00
35746;DHT22;21870;42.812;74.628;2023-07-02T10:17:28;38.30;55.30
35746;DHT22;21870;42.812;74.628;2023-07-02T10:19:56;38.40;57.60
35746;DHT22;21870;42.812;74.628;2023-07-02T10:22:23;38.40;56.40
35746;DHT22;21870;42.812;74.628;2023-07-02T10:24:57;38.30;56.90
35746;DHT22;21870;42.812;74.628;2023-07-02T10:27:39;38.40;55.90
35746;DHT22;21870;42.812;74.628;2023-07-02T10:30:06;38.30;55.90
35746;DHT22;21870;42.812;74.628;2023-07-02T10:32:37;38.20;55.80
35746;DHT22;21870;42.812;74.628;2023-07-02T10:35:24;38.20;55.10
35746;DHT22;21870;42.812;74.628;2023-07-02T10:37:51;38.30;56.90
35746;DHT22;21870;42.812;74.628;2023-07-02T10:40:17;38.40;55.20
35746;DHT22;21870;42.812;74.628;2023-07-02T10:42:51;38.30;56.20
35746;DHT22;21870;42.812;74.628;2023-07-02T10:45:18;38.20;55.00
35746;DHT22;21870;42.812;74.628;2023-07-02T10:47:44;38.10;55.30
35746;DHT22;21870;42.812;74.628;2023-07-02T10:50:21;38.20;55.80
35746;DHT22;21870;42.812;74.628;2023-07-02T10:52:49;38.40;55.40
35746;DHT22;21870;42.812;74.628;2023-07-02T10:55:22;38.30;53.90
35746;DHT22;21870;42.812;74.628;2023-07-02T10:57:51;38.20;54.80
35746;DHT22;21870;42.812;74.628;2023-07-02T11:00:27;38.20;52.30
35746;DHT22;21870;42.812;74.628;2023-07-02T11:02:53;38.10;53.30
35746;DHT22;21870;42.812;74.628;2023-07-02T11:05:19;38.00;54.20
35746;DHT22;21870;42.812;74.628;2023-07-02T11:07:46;37.90;54.10
35746;DHT22;21870;42.812;74.628;2023-07-02T11:10:18;37.90;52.70
35746;DHT22;21870;42.812;74.628;2023-07-02T11:12:44;37.70;52.50
35746;DHT22;21870;42.812;74.628;2023-07-02T11:15:20;37.60;53.00
35746;DHT22;21870;42.812;74.628;2023-07-02T11:17:46;37.70;54.50
35746;DHT22;21870;42.812;74.628;2023-07-02T11:20:13;37.60;53.90
35746;DHT22;21870;42.812;74.628;2023-07-02T11:22:40;37.50;53.90
35746;DHT22;21870;42.812;74.628;2023-07-02T11:25:18;37.50;52.00
35746;DHT22;21870;42.812;74.628;2023-07-02T11:27:45;37.40;54.00
35746;DHT22;21870;42.812;74.628;2023-07-02T11:30:12;37.20;53.40
35746;DHT22;21870;42.812;74.628;2023-07-02T11:32:52;37.10;51.90
35746;DHT22;21870;42.812;74.628;2023-07-02T11:35:19;37.00;52.00
35746;DHT22;21870;42.812;74.628;2023-07-02T11:37:46;36.90;53.50
35746;DHT22;21870;42.812;74.628;2023-07-02T11:40:14;36.90;54.80
35746;DHT22;21870;42.812;74.628;2023-07-02T11:42:40;36.80;52.50
35746;DHT22;21870;42.812;74.628;2023-07-02T11:45:07;36.80;51.10
35746;DHT22;21870;42.812;74.628;2023-07-02T11:47:33;36.60;51.60
35746;DHT22;21870;42.812;74.628;2023-07-02T11:49:59;36.60;52.30
35746;DHT22;21870;42.812;74.628;2023-07-02T11:52:25;36.40;52.70
35746;DHT22;21870;42.812;74.628;2023-07-02T11:54:52;36.40;53.40
35746;DHT22;21870;42.812;74.628;2023-07-02T11:57:18;36.40;51.90
35746;DHT22;21870;42.812;74.628;2023-07-02T11:59:44;36.20;53.00
35746;DHT22;21870;42.812;74.628;2023-07-02T12:02:10;36.20;52.30
35746;DHT22;21870;42.812;74.628;2023-07-02T12:04:36;36.10;51.90
35746;DHT22;21870;42.812;74.628;2023-07-02T12:07:02;36.00;52.70
35746;DHT22;21870;42.812;74.628;2023-07-02T12:09:29;35.90;51.40
35746;DHT22;21870;42.812;74.628;2023-07-02T12:11:55;35.80;53.20
35746;DHT22;21870;42.812;74.628;2023-07-02T12:14:21;35.60;53.10
35746;DHT22;21870;42.812;74.628;2023-07-02T12:16:47;35.60;53.00
35746;DHT22;21870;42.812;74.628;2023-07-02T12:19:13;35.60;52.00
35746;DHT22;21870;42.812;74.628;2023-07-02T12:21:39;35.50;53.00
35746;DHT22;21870;42.812;74.628;2023-07-02T12:24:06;35.50;53.80
35746;DHT22;21870;42.812;74.628;2023-07-02T12:26:39;35.40;53.50
35746;DHT22;21870;42.812;74.628;2023-07-02T12:29:06;35.30;53.70
35746;DHT22;21870;42.812;74.628;2023-07-02T12:31:32;35.30;53.50
35746;DHT22;21870;42.812;74.628;2023-07-02T12:33:58;35.20;53.00
35746;DHT22;21870;42.812;74.628;2023-07-02T12:36:27;35.10;54.00
35746;DHT22;21870;42.812;74.628;2023-07-02T12:38:53;34.90;53.80
35746;DHT22;21870;42.812;74.628;2023-07-02T12:41:19;34.90;54.20
35746;DHT22;21870;42.812;74.628;2023-07-02T12:43:45;34.80;53.90
35746;DHT22;21870;42.812;74.628;2023-07-02T12:46:11;34.70;54.30
35746;DHT22;21870;42.812;74.628;2023-07-02T12:48:37;34.70;53.60
35746;DHT22;21870;42.812;74.628;2023-07-02T12:51:03;34.70;54.10
35746;DHT22;21870;42.812;74.628;2023-07-02T12:53:30;34.60;53.00
35746;DHT22;21870;42.812;74.628;2023-07-02T12:55:56;34.60;53.10
35746;DHT22;21870;42.812;74.628;2023-07-02T12:58:22;34.60;52.10
35746;DHT22;21870;42.812;74.628;2023-07-02T13:00:48;34.50;52.30
35746;DHT22;21870;42.812;74.628;2023-07-02T13:03:16;34.50;52.40
35746;DHT22;21870;42.812;74.628;2023-07-02T13:05:43;34.40;53.60
35746;DHT22;21870;42.812;74.628;2023-07-02T13:08:10;34.20;53.70
35746;DHT22;21870;42.812;74.628;2023-07-02T13:10:36;34.20;53.40
35746;DHT22;21870;42.812;74.628;2023-07-02T13:13:03;34.20;54.10
35746;DHT22;21870;42.812;74.628;2023-07-02T13:15:29;34.20;52.90
35746;DHT22;21870;42.812;74.628;2023-07-02T13:17:55;34.00;53.10
35746;DHT22;21870;42.812;74.628;2023-07-02T13:20:21;34.00;53.90
35746;DHT22;21870;42.812;74.628;2023-07-02T13:22:47;33.90;53.90
35746;DHT22;21870;42.812;74.628;2023-07-02T13:25:13;33.80;53.50
35746;DHT22;21870;42.812;74.628;2023-07-02T13:27:39;33.80;54.30
35746;DHT22;21870;42.812;74.628;2023-07-02T13:30:05;33.80;53.60
35746;DHT22;21870;42.812;74.628;2023-07-02T13:32:32;33.70;53.90
35746;DHT22;21870;42.812;74.628;2023-07-02T13:34:58;33.70;53.60
35746;DHT22;21870;42.812;74.628;2023-07-02T13:37:24;33.60;54.30
35746;DHT22;21870;42.812;74.628;2023-07-02T13:39:50;33.60;55.30
35746;DHT22;21870;42.812;74.628;2023-07-02T13:42:17;33.50;55.20
35746;DHT22;21870;42.812;74.628;2023-07-02T13:44:43;33.40;54.80
35746;DHT22;21870;42.812;74.628;2023-07-02T13:47:09;33.40;54.30
35746;DHT22;21870;42.812;74.628;2023-07-02T13:49:36;33.30;54.70
35746;DHT22;21870;42.812;74.628;2023-07-02T13:52:03;33.30;55.10
35746;DHT22;21870;42.812;74.628;2023-07-02T13:54:29;33.10;55.60
35746;DHT22;21870;42.812;74.628;2023-07-02T13:56:56;33.10;54.90
35746;DHT22;21870;42.812;74.628;2023-07-02T13:59:23;33.00;55.60
35746;DHT22;21870;42.812;74.628;2023-07-02T14:01:49;32.90;55.70
35746;DHT22;21870;42.812;74.628;2023-07-02T14:04:17;32.80;55.30
35746;DHT22;21870;42.812;74.628;2023-07-02T14:06:43;32.80;55.60
35746;DHT22;21870;42.812;74.628;2023-07-02T14:09:10;32.70;55.60
35746;DHT22;21870;42.812;74.628;2023-07-02T14:11:40;32.60;55.80
35746;DHT22;21870;42.812;74.628;2023-07-02T14:14:07;32.50;55.80
35746;DHT22;21870;42.812;74.628;2023-07-02T14:16:34;32.50;55.90
35746;DHT22;21870;42.812;74.628;2023-07-02T14:19:00;32.40;56.10
35746;DHT22;21870;42.812;74.628;2023-07-02T14:21:26;32.30;55.90
35746;DHT22;21870;42.812;74.628;2023-07-02T14:23:52;32.30;56.30
35746;DHT22;21870;42.812;74.628;2023-07-02T14:26:18;32.10;57.50
35746;DHT22;21870;42.812;74.628;2023-07-02T14:28:44;32.10;57.00
35746;DHT22;21870;42.812;74.628;2023-07-02T14:31:10;31.90;57.40
35746;DHT22;21870;42.812;74.628;2023-07-02T14:33:38;31.70;59.60
35746;DHT22;21870;42.812;74.628;2023-07-02T14:36:05;31.40;60.00
35746;DHT22;21870;42.812;74.628;2023-07-02T14:38:31;31.40;60.40
35746;DHT22;21870;42.812;74.628;2023-07-02T14:40:59;31.10;60.80
35746;DHT22;21870;42.812;74.628;2023-07-02T14:43:27;31.00;61.50
35746;DHT22;21870;42.812;74.628;2023-07-02T14:45:55;30.90;61.10
35746;DHT22;21870;42.812;74.628;2023-07-02T14:48:21;30.90;61.90
35746;DHT22;21870;42.812;74.628;2023-07-02T14:50:49;30.70;63.50
35746;DHT22;21870;42.812;74.628;2023-07-02T14:53:20;30.70;62.30
35746;DHT22;21870;42.812;74.628;2023-07-02T14:55:46;30.50;65.40
35746;DHT22;21870;42.812;74.628;2023-07-02T14:58:17;30.50;62.30
35746;DHT22;21870;42.812;74.628;2023-07-02T15:00:54;30.40;62.10
35746;DHT22;21870;42.812;74.628;2023-07-02T15:03:21;30.30;59.40
35746;DHT22;21870;42.812;74.628;2023-07-02T15:05:49;30.40;58.40
35746;DHT22;21870;42.812;74.628;2023-07-02T15:08:16;30.30;59.80
35746;DHT22;21870;42.812;74.628;2023-07-02T15:10:53;30.30;58.10
35746;DHT22;21870;42.812;74.628;2023-07-02T15:13:19;30.30;58.10
35746;DHT22;21870;42.812;74.628;2023-07-02T15:15:48;30.30;58.30
35746;DHT22;21870;42.812;74.628;2023-07-02T15:18:15;30.20;58.70
35746;DHT22;21870;42.812;74.628;2023-07-02T15:20:43;30.10;59.10
35746;DHT22;21870;42.812;74.628;2023-07-02T15:23:10;30.10;59.20